createdAt,value
2022-10-14T00:02:07.735Z,2.25
2022-10-14T00:04:34.562Z,1.58
2022-10-14T00:07:01.266Z,1.45
2022-10-14T00:09:27.938Z,1.67
2022-10-14T00:11:54.682Z,1.85
2022-10-14T00:14:21.743Z,2.03
2022-10-14T00:16:49.050Z,1.98
2022-10-14T00:19:15.854Z,1.80
2022-10-14T00:21:43.905Z,1.73
2022-10-14T00:24:14.674Z,1.27
2022-10-14T00:26:41.542Z,1.88
2022-10-14T00:29:11.162Z,1.67
2022-10-14T00:31:37.808Z,1.67
2022-10-14T00:34:04.557Z,1.50
2022-10-14T00:36:31.325Z,1.77
2022-10-14T00:38:58.044Z,1.48
2022-10-14T00:41:27.544Z,2.13
2022-10-14T00:44:02.652Z,1.48
2022-10-14T00:46:31.419Z,1.20
2022-10-14T00:48:59.317Z,2.03
2022-10-14T00:51:25.995Z,2.10
2022-10-14T00:53:53.200Z,1.25
2022-10-14T00:56:22.119Z,1.60
2022-10-14T00:58:48.789Z,1.60
2022-10-14T01:01:15.568Z,1.75
2022-10-14T01:03:42.552Z,1.50
2022-10-14T01:06:31.864Z,1.88
2022-10-14T01:09:09.978Z,1.90
2022-10-14T01:12:16.353Z,1.90
2022-10-14T01:14:59.952Z,1.63
2022-10-14T01:18:00.658Z,1.35
2022-10-14T01:20:48.247Z,1.77
2022-10-14T01:23:37.157Z,1.17
2022-10-14T01:26:33.656Z,1.27
2022-10-14T01:29:37.986Z,1.35
2022-10-14T01:32:10.465Z,1.20
2022-10-14T01:34:43.677Z,1.25
2022-10-14T01:37:13.512Z,1.75
2022-10-14T01:39:44.742Z,1.42
2022-10-14T01:42:16.834Z,1.23
2022-10-14T01:44:45.879Z,2.08
2022-10-14T01:47:13.517Z,1.40
2022-10-14T01:49:43.651Z,1.67
2022-10-14T01:52:20.303Z,1.55
2022-10-14T01:54:47.379Z,1.55
2022-10-14T01:57:17.042Z,1.83
2022-10-14T01:59:43.767Z,1.45
2022-10-14T02:02:12.290Z,1.65
2022-10-14T02:04:39.834Z,1.80
2022-10-14T02:07:15.151Z,1.27
2022-10-14T02:09:48.738Z,2.42
2022-10-14T02:12:18.313Z,1.38
2022-10-14T02:14:50.289Z,1.33
2022-10-14T02:17:29.950Z,1.63
2022-10-14T02:20:08.130Z,1.33
2022-10-14T02:22:39.758Z,1.35
2022-10-14T02:25:26.863Z,1.40
2022-10-14T02:27:53.584Z,1.38
2022-10-14T02:30:20.421Z,1.73
2022-10-14T02:32:47.128Z,1.80
2022-10-14T02:35:15.906Z,1.65
2022-10-14T02:37:42.629Z,1.73
2022-10-14T02:40:15.267Z,1.65
2022-10-14T02:42:42.085Z,1.45
2022-10-14T02:45:09.519Z,1.33
2022-10-14T02:47:36.210Z,1.58
2022-10-14T02:50:02.997Z,1.67
2022-10-14T02:52:29.637Z,1.40
2022-10-14T02:54:56.296Z,1.80
2022-10-14T02:57:23.016Z,1.20
2022-10-14T02:59:49.673Z,1.75
2022-10-14T03:02:16.490Z,1.63
2022-10-14T03:04:43.252Z,1.38
2022-10-14T03:07:10.406Z,1.48
2022-10-14T03:09:38.199Z,1.95
2022-10-14T03:12:05.837Z,1.92
2022-10-14T03:14:32.556Z,1.38
2022-10-14T03:16:59.196Z,1.77
2022-10-14T03:19:25.830Z,1.75
2022-10-14T03:21:52.634Z,2.83
2022-10-14T03:24:19.328Z,1.50
2022-10-14T03:26:46.034Z,1.77
2022-10-14T03:29:12.866Z,2.13
2022-10-14T03:31:39.523Z,1.98
2022-10-14T03:34:06.245Z,1.83
2022-10-14T03:36:32.895Z,1.80
2022-10-14T03:38:59.598Z,1.90
2022-10-14T03:41:26.425Z,1.77
2022-10-14T03:43:53.163Z,1.60
2022-10-14T03:46:19.904Z,1.65
2022-10-14T03:48:47.034Z,1.90
2022-10-14T03:51:14.436Z,2.50
2022-10-14T03:53:41.123Z,1.88
2022-10-14T03:56:07.991Z,1.90
2022-10-14T03:58:34.667Z,1.58
2022-10-14T04:01:01.628Z,2.25
2022-10-14T04:03:28.267Z,1.80
2022-10-14T04:05:54.899Z,1.90
2022-10-14T04:08:21.566Z,2.13
2022-10-14T04:10:55.446Z,2.00
2022-10-14T04:13:22.375Z,1.85
2022-10-14T04:15:49.129Z,2.22
2022-10-14T04:18:15.826Z,2.20
2022-10-14T04:20:42.485Z,1.73
2022-10-14T04:23:09.332Z,1.98
2022-10-14T04:25:39.143Z,1.80
2022-10-14T04:28:05.897Z,1.73
2022-10-14T04:30:32.557Z,1.88
2022-10-14T04:32:59.413Z,1.95
2022-10-14T04:35:26.198Z,1.85
2022-10-14T04:37:52.883Z,1.75
2022-10-14T04:40:20.590Z,1.73
2022-10-14T04:42:47.352Z,2.38
2022-10-14T04:45:14.062Z,2.22
2022-10-14T04:47:43.862Z,1.40
2022-10-14T04:50:12.868Z,2.33
2022-10-14T04:52:39.525Z,1.92
2022-10-14T04:55:06.503Z,2.03
2022-10-14T04:57:33.338Z,2.40
2022-10-14T05:00:00.117Z,1.95
2022-10-14T05:02:26.828Z,2.00
2022-10-14T05:04:53.532Z,1.90
2022-10-14T05:07:20.341Z,2.17
2022-10-14T05:09:51.173Z,2.35
2022-10-14T05:12:17.914Z,2.00
2022-10-14T05:14:44.655Z,2.35
2022-10-14T05:17:11.362Z,1.92
2022-10-14T05:19:38.010Z,2.38
2022-10-14T05:22:04.798Z,1.70
2022-10-14T05:24:31.910Z,2.03
2022-10-14T05:26:58.801Z,2.08
2022-10-14T05:29:25.462Z,2.53
2022-10-14T05:31:52.764Z,2.20
2022-10-14T05:34:19.743Z,2.00
2022-10-14T05:36:46.402Z,2.88
2022-10-14T05:39:13.339Z,3.08
2022-10-14T05:41:40.422Z,2.28
2022-10-14T05:44:07.150Z,2.05
2022-10-14T05:46:33.818Z,2.10
2022-10-14T05:49:02.558Z,2.22
2022-10-14T05:51:29.292Z,1.80
2022-10-14T05:53:58.287Z,2.35
2022-10-14T05:56:24.975Z,2.58
2022-10-14T05:58:51.697Z,1.95
2022-10-14T06:01:18.447Z,1.85
2022-10-14T06:03:45.144Z,2.05
2022-10-14T06:06:14.132Z,2.05
2022-10-14T06:08:41.698Z,2.00
2022-10-14T06:11:08.562Z,2.03
2022-10-14T06:13:35.662Z,2.30
2022-10-14T06:16:06.536Z,1.95
2022-10-14T06:18:34.268Z,2.08
2022-10-14T06:21:00.997Z,1.75
2022-10-14T06:23:27.760Z,2.10
2022-10-14T06:25:54.450Z,2.60
2022-10-14T06:28:21.404Z,1.60
2022-10-14T06:30:54.349Z,1.50
2022-10-14T06:33:21.428Z,1.83
2022-10-14T06:35:48.228Z,1.40
2022-10-14T06:38:15.138Z,1.83
2022-10-14T06:40:41.861Z,1.70
2022-10-14T06:43:08.634Z,1.80
2022-10-14T06:45:35.324Z,1.55
2022-10-14T06:48:02.071Z,2.00
2022-10-14T06:50:28.724Z,2.53
2022-10-14T06:52:55.818Z,1.80
2022-10-14T06:55:22.462Z,1.70
2022-10-14T06:57:49.596Z,2.67
2022-10-14T07:00:16.915Z,1.77
2022-10-14T07:02:44.594Z,1.38
2022-10-14T07:05:11.316Z,1.40
2022-10-14T07:07:38.016Z,1.08
2022-10-14T07:10:04.941Z,1.27
2022-10-14T07:12:31.592Z,1.80
2022-10-14T07:14:58.472Z,1.60
2022-10-14T07:17:25.436Z,1.23
2022-10-14T07:19:52.211Z,0.95
2022-10-14T07:22:19.079Z,1.63
2022-10-14T07:24:45.894Z,2.00
2022-10-14T07:27:12.583Z,1.65
2022-10-14T07:29:39.370Z,1.35
2022-10-14T07:32:06.253Z,1.52
2022-10-14T07:34:34.227Z,1.80
2022-10-14T07:37:01.238Z,1.58
2022-10-14T07:39:28.789Z,1.10
2022-10-14T07:41:55.645Z,1.25
2022-10-14T07:44:24.977Z,1.20
2022-10-14T07:46:54.067Z,1.02
2022-10-14T07:49:21.212Z,1.40
2022-10-14T07:51:47.973Z,1.20
2022-10-14T07:54:16.844Z,2.13
2022-10-14T07:56:43.811Z,1.40
2022-10-14T07:59:10.851Z,1.35
2022-10-14T08:01:37.935Z,1.80
2022-10-14T08:04:04.905Z,1.15
2022-10-14T08:06:31.659Z,1.73
2022-10-14T08:08:58.361Z,1.55
2022-10-14T08:11:28.954Z,2.67
2022-10-14T08:13:55.817Z,1.67
2022-10-14T08:16:27.415Z,2.08
2022-10-14T08:18:58.571Z,2.20
2022-10-14T08:21:26.759Z,2.63
2022-10-14T08:23:54.865Z,2.42
2022-10-14T08:26:35.939Z,2.60
2022-10-14T08:29:10.669Z,2.85
2022-10-14T08:31:37.482Z,1.63
2022-10-14T08:34:04.143Z,1.75
2022-10-14T08:36:30.859Z,1.70
2022-10-14T08:38:57.701Z,1.52
2022-10-14T08:41:33.327Z,2.08
2022-10-14T08:44:18.391Z,2.03
2022-10-14T08:47:00.658Z,1.63
2022-10-14T08:50:12.832Z,2.28
2022-10-14T08:52:56.025Z,2.28
2022-10-14T08:55:25.735Z,1.40
2022-10-14T08:57:57.810Z,1.85
2022-10-14T09:00:24.618Z,1.87
2022-10-14T09:02:51.591Z,2.20
2022-10-14T09:05:25.568Z,2.22
2022-10-14T09:07:54.020Z,1.30
2022-10-14T09:10:39.892Z,1.17
2022-10-14T09:13:29.957Z,1.13
2022-10-14T09:16:06.533Z,1.70
2022-10-14T09:18:41.323Z,2.08
2022-10-14T09:21:59.065Z,1.70
2022-10-14T09:24:36.523Z,1.60
2022-10-14T09:27:04.165Z,1.25
2022-10-14T09:29:42.996Z,1.40
2022-10-14T09:32:13.302Z,2.13
2022-10-14T09:34:49.689Z,1.08
2022-10-14T09:37:35.127Z,0.95
2022-10-14T09:40:06.707Z,1.27
2022-10-14T09:42:41.281Z,1.17
2022-10-14T09:45:12.103Z,2.70
2022-10-14T09:47:44.918Z,1.45
2022-10-14T09:50:19.792Z,1.50
2022-10-14T09:52:52.303Z,1.75
2022-10-14T09:55:20.451Z,1.30
2022-10-14T09:57:47.705Z,1.55
2022-10-14T10:00:28.551Z,1.35
2022-10-14T10:02:55.357Z,1.08
2022-10-14T10:05:29.265Z,1.10
2022-10-14T10:08:11.109Z,1.15
2022-10-14T10:10:38.849Z,1.13
2022-10-14T10:13:12.114Z,1.63
2022-10-14T10:15:38.896Z,1.63
2022-10-14T10:18:12.410Z,1.00
2022-10-14T10:20:39.162Z,1.60
2022-10-14T10:23:25.228Z,1.25
2022-10-14T10:25:52.172Z,1.55
2022-10-14T10:28:31.659Z,1.33
2022-10-14T10:31:30.737Z,0.93
2022-10-14T10:34:16.667Z,1.00
2022-10-14T10:36:48.259Z,1.67
2022-10-14T10:39:46.795Z,1.70
2022-10-14T10:42:31.917Z,1.40
2022-10-14T10:45:01.758Z,1.90
2022-10-14T10:47:41.193Z,1.10
2022-10-14T10:50:29.152Z,1.23
2022-10-14T10:53:18.272Z,1.52
2022-10-14T10:55:54.250Z,3.15
2022-10-14T10:58:46.165Z,1.90
2022-10-14T11:01:26.233Z,1.23
2022-10-14T11:04:33.816Z,1.58
2022-10-14T11:07:50.562Z,1.92
2022-10-14T11:11:01.243Z,2.60
2022-10-14T11:13:47.428Z,1.40
2022-10-14T11:16:16.195Z,2.00
2022-10-14T11:19:14.778Z,1.27
2022-10-14T11:21:43.221Z,2.00
2022-10-14T11:24:13.131Z,1.38
2022-10-14T11:26:42.924Z,2.35
2022-10-14T11:29:36.550Z,2.95
2022-10-14T11:34:58.441Z,2.03
2022-10-14T11:37:43.579Z,1.88
2022-10-14T11:40:18.600Z,2.13
2022-10-14T11:43:13.616Z,1.90
2022-10-14T11:45:42.780Z,1.42
2022-10-14T11:48:27.357Z,1.00
2022-10-14T11:51:21.166Z,1.80
2022-10-14T11:54:40.436Z,1.67
2022-10-14T11:57:07.794Z,1.50
2022-10-14T12:00:07.095Z,2.42
2022-10-14T12:02:54.192Z,1.58
2022-10-14T12:05:41.005Z,1.63
2022-10-14T12:08:50.275Z,1.40
2022-10-14T12:11:35.639Z,0.82
2022-10-14T12:14:10.275Z,0.57
2022-10-14T12:16:38.988Z,1.58
2022-10-14T12:19:08.240Z,1.58
2022-10-14T12:22:08.947Z,1.30
2022-10-14T12:24:41.657Z,2.08
2022-10-14T12:27:10.795Z,1.58
2022-10-14T12:29:48.171Z,1.67
2022-10-14T12:32:21.202Z,2.05
2022-10-14T12:34:49.910Z,1.90
2022-10-14T12:37:42.978Z,1.55
2022-10-14T12:40:12.844Z,1.45
2022-10-14T12:42:59.025Z,1.67
2022-10-14T12:45:30.497Z,2.05
2022-10-14T12:48:15.845Z,2.20
2022-10-14T12:50:43.849Z,1.73
2022-10-14T12:53:26.798Z,1.90
2022-10-14T12:55:56.074Z,1.17
2022-10-14T12:58:55.342Z,1.60
2022-10-14T13:01:22.605Z,1.10
2022-10-14T13:06:39.898Z,1.75
2022-10-14T13:09:12.794Z,0.82
2022-10-14T13:11:41.276Z,0.70
2022-10-14T13:14:27.828Z,0.70
2022-10-14T13:17:02.124Z,0.93
2022-10-14T13:19:35.067Z,1.08
2022-10-14T13:24:39.216Z,1.27
2022-10-14T13:27:09.518Z,1.27
2022-10-14T13:29:58.223Z,0.90
2022-10-14T13:32:45.574Z,1.00
2022-10-14T13:35:26.669Z,0.60
2022-10-14T13:37:56.112Z,0.55
2022-10-14T13:40:34.739Z,1.00
2022-10-14T13:43:13.394Z,0.98
2022-10-14T13:46:08.002Z,1.23
2022-10-14T13:48:36.113Z,1.00
2022-10-14T13:51:41.640Z,1.65
2022-10-14T13:54:33.626Z,1.75
2022-10-14T14:02:43.502Z,1.10
2022-10-14T14:05:15.111Z,1.15
2022-10-14T14:10:29.213Z,0.80
2022-10-14T14:12:56.083Z,1.02
2022-10-14T14:15:26.031Z,0.90
2022-10-14T14:17:53.425Z,0.95
2022-10-14T14:20:25.192Z,0.98
2022-10-14T14:22:51.991Z,0.73
2022-10-14T14:25:35.730Z,1.33
2022-10-14T14:28:05.815Z,1.30
2022-10-14T14:30:36.998Z,0.82
2022-10-14T14:33:07.009Z,0.75
2022-10-14T14:35:34.019Z,0.52
2022-10-14T14:38:01.080Z,0.65
2022-10-14T14:40:29.311Z,0.77
2022-10-14T14:43:03.310Z,0.65
2022-10-14T14:45:50.238Z,0.47
2022-10-14T14:48:17.060Z,0.80
2022-10-14T14:50:45.135Z,1.38
2022-10-14T14:53:22.625Z,0.63
2022-10-14T14:56:07.953Z,1.00
2022-10-14T14:58:47.339Z,0.88
2022-10-14T15:01:22.503Z,0.50
2022-10-14T15:04:13.405Z,0.50
2022-10-14T15:06:39.714Z,0.77
2022-10-14T15:09:21.940Z,0.85
2022-10-14T15:11:55.662Z,1.02
2022-10-14T15:14:59.918Z,0.68
2022-10-14T15:17:27.796Z,0.52
2022-10-14T15:19:57.794Z,0.80
2022-10-14T15:22:30.563Z,0.43
2022-10-14T15:27:36.805Z,1.08
2022-10-14T15:30:27.705Z,0.65
2022-10-14T15:32:59.367Z,0.65
2022-10-14T15:35:26.311Z,0.88
2022-10-14T15:37:53.990Z,1.77
2022-10-14T15:40:23.666Z,1.10
2022-10-14T15:42:50.706Z,0.98
2022-10-14T15:45:17.578Z,1.52
2022-10-14T15:47:44.535Z,0.63
2022-10-14T15:50:22.860Z,1.08
2022-10-14T15:52:50.772Z,0.80
2022-10-14T15:55:25.336Z,0.88
2022-10-14T15:57:52.377Z,1.08
2022-10-14T16:00:23.467Z,1.20
2022-10-14T16:02:54.442Z,1.00
2022-10-14T16:05:21.669Z,0.55
2022-10-14T16:07:48.740Z,0.40
2022-10-14T16:10:17.112Z,0.65
2022-10-14T16:12:43.854Z,0.45
2022-10-14T16:15:32.768Z,0.90
2022-10-14T16:17:59.476Z,1.13
2022-10-14T16:20:26.908Z,1.73
2022-10-14T16:22:53.741Z,0.65
2022-10-14T16:25:33.503Z,0.60
2022-10-14T16:28:00.678Z,0.88
2022-10-14T16:30:28.076Z,0.70
2022-10-14T16:32:55.285Z,0.90
2022-10-14T16:35:22.024Z,0.52
2022-10-14T16:37:49.019Z,0.90
2022-10-14T16:40:15.980Z,1.88
2022-10-14T16:42:42.795Z,0.70
2022-10-14T16:45:09.915Z,1.10
2022-10-14T16:47:36.552Z,0.65
2022-10-14T16:50:03.434Z,0.52
2022-10-14T16:52:50.106Z,0.88
2022-10-14T16:55:18.095Z,0.60
2022-10-14T16:57:44.779Z,0.95
2022-10-14T17:00:12.282Z,0.70
2022-10-14T17:02:38.975Z,0.57
2022-10-14T17:05:06.064Z,0.60
2022-10-14T17:07:33.890Z,0.63
2022-10-14T17:10:00.633Z,1.27
2022-10-14T17:12:27.418Z,0.63
2022-10-14T17:14:54.161Z,1.00
2022-10-14T17:17:23.754Z,1.08
2022-10-14T17:19:53.803Z,1.40
2022-10-14T17:22:21.396Z,1.70
2022-10-14T17:24:49.098Z,1.33
2022-10-14T17:27:17.352Z,1.90
2022-10-14T17:29:44.429Z,1.42
2022-10-14T17:32:11.208Z,1.13
2022-10-14T17:34:37.921Z,1.67
2022-10-14T17:37:05.347Z,2.30
2022-10-14T17:39:32.173Z,1.83
2022-10-14T17:41:58.873Z,1.77
2022-10-14T17:44:25.819Z,2.42
2022-10-14T17:46:53.414Z,1.73
2022-10-14T17:49:20.252Z,1.30
2022-10-14T17:51:47.402Z,1.50
2022-10-14T17:54:14.352Z,1.58
2022-10-14T17:56:41.229Z,1.15
2022-10-14T17:59:10.940Z,0.65
2022-10-14T18:02:00.964Z,0.85
2022-10-14T18:04:26.324Z,0.77
2022-10-14T18:06:54.228Z,1.08
2022-10-14T18:09:21.240Z,0.35
2022-10-14T18:14:40.666Z,0.70
2022-10-14T18:17:08.444Z,0.43
2022-10-14T18:19:35.197Z,0.88
2022-10-14T18:22:03.299Z,1.00
2022-10-14T18:24:30.123Z,1.50
2022-10-14T18:26:57.588Z,2.05
2022-10-14T18:29:24.610Z,2.00
2022-10-14T18:34:19.034Z,1.95
2022-10-14T18:36:47.836Z,1.85
2022-10-14T18:39:15.437Z,1.80
2022-10-14T18:41:44.080Z,1.50
2022-10-14T18:44:11.255Z,1.63
2022-10-14T18:46:39.288Z,1.83
2022-10-14T18:49:07.262Z,1.23
2022-10-14T18:51:36.189Z,1.60
2022-10-14T18:54:08.216Z,1.98
2022-10-14T18:56:38.739Z,2.22
2022-10-14T18:59:08.947Z,2.08
2022-10-14T19:01:36.448Z,1.05
2022-10-14T19:04:05.296Z,1.27
2022-10-14T19:06:32.949Z,1.55
2022-10-14T19:09:02.377Z,1.55
2022-10-14T19:11:29.340Z,1.10
2022-10-14T19:13:57.095Z,1.13
2022-10-14T19:16:24.614Z,1.00
2022-10-14T19:18:59.251Z,2.90
2022-10-14T19:21:33.410Z,1.30
2022-10-14T19:24:01.506Z,1.63
2022-10-14T19:26:31.138Z,1.63
2022-10-14T19:28:59.072Z,1.55
2022-10-14T19:31:27.480Z,1.33
2022-10-14T19:33:54.675Z,1.52
2022-10-14T19:36:22.164Z,1.48
2022-10-14T19:38:58.089Z,1.05
2022-10-14T19:41:29.214Z,1.50
2022-10-14T19:43:56.802Z,1.15
2022-10-14T19:46:27.292Z,0.95
2022-10-14T19:48:58.491Z,1.83
2022-10-14T19:51:25.641Z,1.38
2022-10-14T19:53:53.872Z,1.33
2022-10-14T19:56:20.806Z,1.00
2022-10-14T19:58:49.806Z,1.23
2022-10-14T20:01:17.416Z,1.27
2022-10-14T20:03:44.962Z,0.85
2022-10-14T20:06:12.353Z,1.40
2022-10-14T20:08:39.485Z,1.30
2022-10-14T20:11:10.698Z,0.70
2022-10-14T20:13:37.676Z,1.60
2022-10-14T20:16:05.420Z,0.75
2022-10-14T20:18:32.191Z,0.65
2022-10-14T20:21:00.283Z,0.98
2022-10-14T20:23:27.088Z,0.80
2022-10-14T20:26:00.302Z,0.70
2022-10-14T20:30:54.280Z,0.65
2022-10-14T20:33:21.069Z,1.45
2022-10-14T20:35:47.922Z,0.63
2022-10-14T20:38:14.736Z,0.90
2022-10-14T20:40:41.407Z,0.90
2022-10-14T20:43:08.091Z,0.95
2022-10-14T20:45:34.809Z,0.75
2022-10-14T20:48:01.693Z,0.85
2022-10-14T20:50:28.335Z,1.05
2022-10-14T20:52:55.196Z,0.40
2022-10-14T20:55:21.900Z,0.80
2022-10-14T20:57:49.049Z,1.33
2022-10-14T21:00:15.877Z,1.00
2022-10-14T21:05:10.407Z,1.20
2022-10-14T21:07:37.143Z,1.10
2022-10-14T21:10:04.001Z,0.60
2022-10-14T21:12:30.765Z,0.95
2022-10-14T21:14:57.523Z,0.40
2022-10-14T21:17:24.303Z,0.47
2022-10-14T21:19:51.029Z,0.75
2022-10-14T21:22:17.768Z,1.20
2022-10-14T21:24:44.515Z,0.98
2022-10-14T21:27:12.641Z,1.10
2022-10-14T21:29:39.922Z,1.33
2022-10-14T21:32:07.342Z,0.50
2022-10-14T21:34:34.259Z,0.85
2022-10-14T21:37:01.213Z,0.60
2022-10-14T21:39:28.325Z,0.38
2022-10-14T21:41:54.992Z,1.00
2022-10-14T21:44:21.800Z,0.75
2022-10-14T21:46:48.782Z,0.85
2022-10-14T21:49:16.511Z,0.98
2022-10-14T21:51:43.270Z,0.80
2022-10-14T21:54:13.131Z,0.88
2022-10-14T21:56:39.776Z,0.77
2022-10-14T21:59:07.056Z,0.63
2022-10-14T22:01:34.069Z,0.77
2022-10-14T22:04:03.882Z,0.80
2022-10-14T22:06:31.477Z,0.52
2022-10-14T22:08:58.676Z,1.33
2022-10-14T22:11:36.432Z,0.57
2022-10-14T22:14:04.832Z,0.82
2022-10-14T22:16:31.772Z,0.63
2022-10-14T22:18:59.958Z,0.47
2022-10-14T22:21:27.615Z,0.65
2022-10-14T22:23:54.456Z,0.95
2022-10-14T22:26:23.014Z,0.70
2022-10-14T22:28:49.916Z,1.75
2022-10-14T22:31:18.205Z,0.73
2022-10-14T22:33:45.405Z,1.10
2022-10-14T22:36:14.402Z,0.50
2022-10-14T22:38:43.121Z,0.75
2022-10-14T22:41:10.173Z,0.50
2022-10-14T22:43:36.989Z,0.40
2022-10-14T22:46:10.962Z,0.70
2022-10-14T22:48:37.875Z,0.45
2022-10-14T22:51:12.391Z,0.90
2022-10-14T22:53:40.223Z,0.50
2022-10-14T22:56:08.796Z,0.65
2022-10-14T22:58:35.666Z,0.82
2022-10-14T23:01:11.808Z,0.50
2022-10-14T23:03:38.549Z,0.80
2022-10-14T23:06:06.368Z,1.10
2022-10-14T23:08:33.382Z,1.15
2022-10-14T23:11:00.545Z,0.88
2022-10-14T23:13:27.358Z,1.10
2022-10-14T23:16:02.141Z,0.90
2022-10-14T23:18:29.782Z,0.50
2022-10-14T23:20:56.668Z,0.52
2022-10-14T23:23:23.361Z,0.55
2022-10-14T23:25:50.079Z,0.93
2022-10-14T23:28:16.850Z,0.32
2022-10-14T23:30:43.596Z,0.43
2022-10-14T23:33:11.841Z,0.90
2022-10-14T23:35:39.216Z,0.43
2022-10-14T23:38:05.939Z,0.40
2022-10-14T23:40:33.156Z,0.50
2022-10-14T23:42:59.927Z,0.45
2022-10-14T23:45:26.620Z,0.30
2022-10-14T23:47:53.381Z,0.40
2022-10-14T23:50:20.168Z,0.43
2022-10-14T23:52:47.024Z,0.50
2022-10-14T23:55:14.094Z,0.90
2022-10-14T23:57:40.884Z,1.05
